sensor_id;sensor_type;location;lat;lon;timestamp;pressure;altitude;pressure_sealevel;temperature;humidity
76297;BME280;65104;52.994;6.552;2023-04-21T00:02:19;101720.72;;;8.55;92.56
76297;BME280;65104;52.994;6.552;2023-04-21T00:04:45;101714.66;;;8.53;92.50
76297;BME280;65104;52.994;6.552;2023-04-21T00:07:11;101701.97;;;8.56;92.09
76297;BME280;65104;52.994;6.552;2023-04-21T00:09:39;101696.06;;;8.57;91.79
76297;BME280;65104;52.994;6.552;2023-04-21T00:12:04;101699.28;;;8.53;91.58
76297;BME280;65104;52.994;6.552;2023-04-21T00:14:29;101701.09;;;8.56;91.92
76297;BME280;65104;52.994;6.552;2023-04-21T00:16:55;101701.03;;;8.54;91.56
76297;BME280;65104;52.994;6.552;2023-04-21T00:19:20;101698.47;;;8.54;91.56
76297;BME280;65104;52.994;6.552;2023-04-21T00:21:48;101683.78;;;8.50;91.49
76297;BME280;65104;52.994;6.552;2023-04-21T00:24:13;101678.81;;;8.53;91.57
76297;BME280;65104;52.994;6.552;2023-04-21T00:26:38;101668.72;;;8.56;91.06
76297;BME280;65104;52.994;6.552;2023-04-21T00:29:04;101669.44;;;8.54;90.61
76297;BME280;65104;52.994;6.552;2023-04-21T00:31:29;101661.59;;;8.49;90.78
76297;BME280;65104;52.994;6.552;2023-04-21T00:33:56;101658.84;;;8.45;91.01
76297;BME280;65104;52.994;6.552;2023-04-21T00:36:21;101653.56;;;8.40;91.44
76297;BME280;65104;52.994;6.552;2023-04-21T00:38:51;101649.19;;;8.38;91.17
76297;BME280;65104;52.994;6.552;2023-04-21T00:41:17;101650.06;;;8.38;90.80
76297;BME280;65104;52.994;6.552;2023-04-21T00:44:05;101652.34;;;8.32;91.28
76297;BME280;65104;52.994;6.552;2023-04-21T00:46:31;101647.16;;;8.31;91.30
76297;BME280;65104;52.994;6.552;2023-04-21T00:48:57;101646.28;;;8.30;91.27
76297;BME280;65104;52.994;6.552;2023-04-21T00:51:24;101641.91;;;8.27;91.46
76297;BME280;65104;52.994;6.552;2023-04-21T00:53:50;101646.00;;;8.24;91.20
76297;BME280;65104;52.994;6.552;2023-04-21T00:56:16;101647.59;;;8.20;91.54
76297;BME280;65104;52.994;6.552;2023-04-21T00:58:43;101645.09;;;8.22;91.40
76297;BME280;65104;52.994;6.552;2023-04-21T01:01:09;101644.00;;;8.17;91.27
76297;BME280;65104;52.994;6.552;2023-04-21T01:03:35;101625.22;;;8.16;91.37
76297;BME280;65104;52.994;6.552;2023-04-21T01:06:00;101626.09;;;8.17;91.51
76297;BME280;65104;52.994;6.552;2023-04-21T01:08:26;101622.56;;;8.13;90.95
76297;BME280;65104;52.994;6.552;2023-04-21T01:10:52;101626.09;;;8.17;90.75
76297;BME280;65104;52.994;6.552;2023-04-21T01:13:20;101620.88;;;8.14;90.79
76297;BME280;65104;52.994;6.552;2023-04-21T01:15:48;101621.00;;;8.17;90.57
76297;BME280;65104;52.994;6.552;2023-04-21T01:18:13;101615.78;;;8.14;90.74
76297;BME280;65104;52.994;6.552;2023-04-21T01:20:39;101610.66;;;8.14;90.85
76297;BME280;65104;52.994;6.552;2023-04-21T01:23:05;101609.00;;;8.16;91.04
76297;BME280;65104;52.994;6.552;2023-04-21T01:25:31;101615.78;;;8.14;90.87
76297;BME280;65104;52.994;6.552;2023-04-21T01:27:57;101618.00;;;8.06;91.15
76297;BME280;65104;52.994;6.552;2023-04-21T01:30:22;101625.00;;;8.10;91.14
76297;BME280;65104;52.994;6.552;2023-04-21T01:32:48;101632.47;;;8.06;90.92
76297;BME280;65104;52.994;6.552;2023-04-21T01:35:13;101629.88;;;8.04;90.93
76297;BME280;65104;52.994;6.552;2023-04-21T01:37:39;101632.34;;;8.03;90.86
76297;BME280;65104;52.994;6.552;2023-04-21T01:40:06;101621.09;;;7.99;90.70
76297;BME280;65104;52.994;6.552;2023-04-21T01:42:35;101624.53;;;8.00;91.19
76297;BME280;65104;52.994;6.552;2023-04-21T01:45:01;101615.25;;;8.02;90.83
76297;BME280;65104;52.994;6.552;2023-04-21T01:47:26;101610.00;;;7.99;91.07
76297;BME280;65104;52.994;6.552;2023-04-21T01:49:52;101605.66;;;7.96;90.97
76297;BME280;65104;52.994;6.552;2023-04-21T01:52:17;101592.81;;;7.95;91.09
76297;BME280;65104;52.994;6.552;2023-04-21T01:54:43;101595.22;;;7.91;90.78
76297;BME280;65104;52.994;6.552;2023-04-21T01:57:08;101596.16;;;7.94;91.20
76297;BME280;65104;52.994;6.552;2023-04-21T01:59:35;101591.72;;;7.89;90.86
76297;BME280;65104;52.994;6.552;2023-04-21T02:02:00;101587.38;;;7.87;90.61
76297;BME280;65104;52.994;6.552;2023-04-21T02:04:25;101593.16;;;7.83;91.50
76297;BME280;65104;52.994;6.552;2023-04-21T02:06:51;101598.22;;;7.81;91.41
76297;BME280;65104;52.994;6.552;2023-04-21T02:09:16;101598.91;;;7.77;91.41
76297;BME280;65104;52.994;6.552;2023-04-21T02:11:41;101598.91;;;7.77;91.25
76297;BME280;65104;52.994;6.552;2023-04-21T02:14:07;101604.69;;;7.73;91.28
76297;BME280;65104;52.994;6.552;2023-04-21T02:16:32;101600.38;;;7.72;92.00
76297;BME280;65104;52.994;6.552;2023-04-21T02:18:58;101605.50;;;7.72;91.57
76297;BME280;65104;52.994;6.552;2023-04-21T02:21:24;101592.63;;;7.71;91.58
76297;BME280;65104;52.994;6.552;2023-04-21T02:23:50;101606.03;;;7.65;91.83
76297;BME280;65104;52.994;6.552;2023-04-21T02:26:16;101607.78;;;7.66;91.92
76297;BME280;65104;52.994;6.552;2023-04-21T02:28:42;101605.25;;;7.66;92.17
76297;BME280;65104;52.994;6.552;2023-04-21T02:31:07;101600.00;;;7.63;91.82
76297;BME280;65104;52.994;6.552;2023-04-21T02:33:32;101603.34;;;7.62;91.92
76297;BME280;65104;52.994;6.552;2023-04-21T02:35:58;101605.84;;;7.61;91.65
76297;BME280;65104;52.994;6.552;2023-04-21T02:38:23;101614.25;;;7.58;91.94
76297;BME280;65104;52.994;6.552;2023-04-21T02:40:49;101610.63;;;7.53;92.09
76297;BME280;65104;52.994;6.552;2023-04-21T02:43:17;101605.25;;;7.47;92.47
76297;BME280;65104;52.994;6.552;2023-04-21T02:45:42;101613.72;;;7.46;92.60
76297;BME280;65104;52.994;6.552;2023-04-21T02:48:08;101611.91;;;7.43;92.29
76297;BME280;65104;52.994;6.552;2023-04-21T02:50:34;101609.16;;;7.39;92.94
76297;BME280;65104;52.994;6.552;2023-04-21T02:52:59;101600.63;;;7.38;93.17
76297;BME280;65104;52.994;6.552;2023-04-21T02:55:25;101596.56;;;7.43;92.24
76297;BME280;65104;52.994;6.552;2023-04-21T02:57:50;101596.56;;;7.43;92.64
76297;BME280;65104;52.994;6.552;2023-04-21T03:00:15;101590.72;;;7.46;92.55
76297;BME280;65104;52.994;6.552;2023-04-21T03:02:41;101590.53;;;7.41;92.41
76297;BME280;65104;52.994;6.552;2023-04-21T03:05:07;101593.97;;;7.42;93.00
76297;BME280;65104;52.994;6.552;2023-04-21T03:07:33;101594.78;;;7.41;92.86
76297;BME280;65104;52.994;6.552;2023-04-21T03:09:58;101593.91;;;7.40;93.11
76297;BME280;65104;52.994;6.552;2023-04-21T03:12:23;101597.25;;;7.39;92.95
76297;BME280;65104;52.994;6.552;2023-04-21T03:14:49;101602.16;;;7.35;93.48
76297;BME280;65104;52.994;6.552;2023-04-21T03:17:14;101593.56;;;7.33;93.07
76297;BME280;65104;52.994;6.552;2023-04-21T03:19:39;101593.69;;;7.36;92.82
76297;BME280;65104;52.994;6.552;2023-04-21T03:22:05;101588.50;;;7.34;92.98
76297;BME280;65104;52.994;6.552;2023-04-21T03:24:31;101579.97;;;7.34;93.02
76297;BME280;65104;52.994;6.552;2023-04-21T03:26:56;101585.03;;;7.32;93.18
76297;BME280;65104;52.994;6.552;2023-04-21T03:29:22;101575.72;;;7.34;93.08
76297;BME280;65104;52.994;6.552;2023-04-21T03:31:48;101584.22;;;7.33;92.29
76297;BME280;65104;52.994;6.552;2023-04-21T03:34:13;101584.28;;;7.35;92.56
76297;BME280;65104;52.994;6.552;2023-04-21T03:36:39;101587.03;;;7.39;92.33
76297;BME280;65104;52.994;6.552;2023-04-21T03:39:04;101586.09;;;7.37;92.72
76297;BME280;65104;52.994;6.552;2023-04-21T03:41:30;101580.91;;;7.36;92.91
76297;BME280;65104;52.994;6.552;2023-04-21T03:43:55;101593.69;;;7.36;92.67
76297;BME280;65104;52.994;6.552;2023-04-21T03:46:21;101589.38;;;7.35;93.24
76297;BME280;65104;52.994;6.552;2023-04-21T03:48:47;101575.69;;;7.33;92.08
76297;BME280;65104;52.994;6.552;2023-04-21T03:51:13;101577.22;;;7.29;93.11
76297;BME280;65104;52.994;6.552;2023-04-21T03:53:39;101569.63;;;7.31;92.96
76297;BME280;65104;52.994;6.552;2023-04-21T03:56:05;101577.09;;;7.26;92.49
76297;BME280;65104;52.994;6.552;2023-04-21T03:58:30;101566.69;;;7.22;92.38
76297;BME280;65104;52.994;6.552;2023-04-21T04:00:55;101580.41;;;7.24;92.44
76297;BME280;65104;52.994;6.552;2023-04-21T04:03:23;101569.09;;;7.19;93.16
76297;BME280;65104;52.994;6.552;2023-04-21T04:05:49;101563.03;;;7.16;93.21
76297;BME280;65104;52.994;6.552;2023-04-21T04:08:14;101577.56;;;7.18;92.75
76297;BME280;65104;52.994;6.552;2023-04-21T04:10:39;101579.91;;;7.13;93.32
76297;BME280;65104;52.994;6.552;2023-04-21T04:13:05;101579.84;;;7.11;93.13
76297;BME280;65104;52.994;6.552;2023-04-21T04:15:30;101572.91;;;7.09;93.37
76297;BME280;65104;52.994;6.552;2023-04-21T04:17:55;101574.53;;;7.07;94.01
76297;BME280;65104;52.994;6.552;2023-04-21T04:20:21;101571.13;;;7.06;93.40
76297;BME280;65104;52.994;6.552;2023-04-21T04:22:46;101572.81;;;7.06;93.40
76297;BME280;65104;52.994;6.552;2023-04-21T04:25:12;101577.91;;;7.06;93.77
76297;BME280;65104;52.994;6.552;2023-04-21T04:27:39;101571.13;;;7.06;92.99
76297;BME280;65104;52.994;6.552;2023-04-21T04:30:06;101571.13;;;7.06;93.92
76297;BME280;65104;52.994;6.552;2023-04-21T04:32:31;101582.19;;;7.07;93.84
76297;BME280;65104;52.994;6.552;2023-04-21T04:34:57;101582.19;;;7.07;93.92
76297;BME280;65104;52.994;6.552;2023-04-21T04:37:23;101584.69;;;7.05;93.29
76297;BME280;65104;52.994;6.552;2023-04-21T04:39:52;101581.03;;;7.00;93.37
76297;BME280;65104;52.994;6.552;2023-04-21T04:42:17;101586.22;;;7.02;94.22
76297;BME280;65104;52.994;6.552;2023-04-21T04:44:44;101588.84;;;7.03;93.88
76297;BME280;65104;52.994;6.552;2023-04-21T04:47:09;101595.63;;;7.03;93.54
76297;BME280;65104;52.994;6.552;2023-04-21T04:49:35;101601.47;;;7.00;93.59
76297;BME280;65104;52.994;6.552;2023-04-21T04:52:00;101605.94;;;7.04;94.29
76297;BME280;65104;52.994;6.552;2023-04-21T04:54:26;101601.09;;;7.10;93.52
76297;BME280;65104;52.994;6.552;2023-04-21T04:56:53;101607.06;;;7.11;93.55
76297;BME280;65104;52.994;6.552;2023-04-21T04:59:18;101613.13;;;7.13;93.33
76297;BME280;65104;52.994;6.552;2023-04-21T05:01:43;101605.56;;;7.16;94.03
76297;BME280;65104;52.994;6.552;2023-04-21T05:04:09;101609.16;;;7.20;92.97
76297;BME280;65104;52.994;6.552;2023-04-21T05:06:35;101605.72;;;7.19;93.37
76297;BME280;65104;52.994;6.552;2023-04-21T05:09:01;101605.72;;;7.19;93.70
76297;BME280;65104;52.994;6.552;2023-04-21T05:11:28;101617.22;;;7.29;93.51
76297;BME280;65104;52.994;6.552;2023-04-21T05:13:54;101616.41;;;7.30;93.68
76297;BME280;65104;52.994;6.552;2023-04-21T05:16:19;101627.59;;;7.32;93.41
76297;BME280;65104;52.994;6.552;2023-04-21T05:18:45;101623.47;;;7.35;92.70
76297;BME280;65104;52.994;6.552;2023-04-21T05:21:10;101623.63;;;7.38;93.33
76297;BME280;65104;52.994;6.552;2023-04-21T05:23:35;101616.28;;;7.46;92.84
76297;BME280;65104;52.994;6.552;2023-04-21T05:26:01;101626.25;;;7.59;91.85
76297;BME280;65104;52.994;6.552;2023-04-21T05:28:26;101609.25;;;7.61;91.77
76297;BME280;65104;52.994;6.552;2023-04-21T05:30:54;101610.28;;;7.65;92.05
76297;BME280;65104;52.994;6.552;2023-04-21T05:33:19;101613.84;;;7.68;91.71
76297;BME280;65104;52.994;6.552;2023-04-21T05:35:45;101614.09;;;7.74;92.18
76297;BME280;65104;52.994;6.552;2023-04-21T05:38:10;101605.94;;;7.83;91.74
76297;BME280;65104;52.994;6.552;2023-04-21T05:40:36;101604.44;;;7.88;91.83
76297;BME280;65104;52.994;6.552;2023-04-21T05:43:01;101611.44;;;7.92;90.95
76297;BME280;65104;52.994;6.552;2023-04-21T05:45:27;101615.06;;;7.97;90.97
76297;BME280;65104;52.994;6.552;2023-04-21T05:47:52;101615.00;;;7.96;90.31
76297;BME280;65104;52.994;6.552;2023-04-21T05:50:17;101620.22;;;7.99;90.54
76297;BME280;65104;52.994;6.552;2023-04-21T05:52:43;101614.53;;;8.04;90.47
76297;BME280;65104;52.994;6.552;2023-04-21T05:55:08;101613.16;;;8.12;90.29
76297;BME280;65104;52.994;6.552;2023-04-21T05:57:34;101612.50;;;8.18;90.07
76297;BME280;65104;52.994;6.552;2023-04-21T05:59:59;101610.09;;;8.21;89.51
76297;BME280;65104;52.994;6.552;2023-04-21T06:02:24;101616.19;;;8.24;89.62
76297;BME280;65104;52.994;6.552;2023-04-21T06:04:50;101618.94;;;8.29;90.25
76297;BME280;65104;52.994;6.552;2023-04-21T06:07:15;101617.47;;;8.34;89.95
76297;BME280;65104;52.994;6.552;2023-04-21T06:09:41;101618.63;;;8.42;89.87
76297;BME280;65104;52.994;6.552;2023-04-21T06:12:07;101618.19;;;8.52;88.72
76297;BME280;65104;52.994;6.552;2023-04-21T06:14:33;101621.00;;;8.58;88.46
76297;BME280;65104;52.994;6.552;2023-04-21T06:16:58;101622.13;;;8.65;88.27
76297;BME280;65104;52.994;6.552;2023-04-21T06:19:23;101614.72;;;8.73;88.12
76297;BME280;65104;52.994;6.552;2023-04-21T06:21:49;101604.97;;;8.85;87.74
76297;BME280;65104;52.994;6.552;2023-04-21T06:24:15;101598.78;;;9.02;87.54
76297;BME280;65104;52.994;6.552;2023-04-21T06:26:41;101602.69;;;9.16;86.45
76297;BME280;65104;52.994;6.552;2023-04-21T06:29:06;101604.34;;;9.38;85.12
76297;BME280;65104;52.994;6.552;2023-04-21T06:31:31;101606.53;;;9.51;85.34
76297;BME280;65104;52.994;6.552;2023-04-21T06:33:57;101602.78;;;9.67;84.50
76297;BME280;65104;52.994;6.552;2023-04-21T06:36:22;101596.41;;;9.79;84.46
76297;BME280;65104;52.994;6.552;2023-04-21T06:38:48;101596.91;;;9.95;83.03
76297;BME280;65104;52.994;6.552;2023-04-21T06:41:13;101593.19;;;10.12;82.69
76297;BME280;65104;52.994;6.552;2023-04-21T06:43:39;101600.69;;;10.31;82.28
76297;BME280;65104;52.994;6.552;2023-04-21T06:46:04;101598.88;;;10.54;81.92
76297;BME280;65104;52.994;6.552;2023-04-21T06:48:30;101593.84;;;10.87;80.46
76297;BME280;65104;52.994;6.552;2023-04-21T06:50:56;101596.31;;;11.12;78.31
76297;BME280;65104;52.994;6.552;2023-04-21T06:53:21;101581.25;;;11.24;78.01
76297;BME280;65104;52.994;6.552;2023-04-21T06:55:47;101587.31;;;11.28;77.62
76297;BME280;65104;52.994;6.552;2023-04-21T06:58:12;101582.44;;;11.37;76.59
76297;BME280;65104;52.994;6.552;2023-04-21T07:00:38;101580.47;;;11.27;76.97
76297;BME280;65104;52.994;6.552;2023-04-21T07:03:03;101572.22;;;11.40;76.58
76297;BME280;65104;52.994;6.552;2023-04-21T07:05:32;101580.16;;;11.48;76.35
76297;BME280;65104;52.994;6.552;2023-04-21T07:07:57;101573.81;;;11.35;76.72
76297;BME280;65104;52.994;6.552;2023-04-21T07:10:27;101575.56;;;11.36;76.54
76297;BME280;65104;52.994;6.552;2023-04-21T07:12:53;101576.22;;;11.29;76.89
76297;BME280;65104;52.994;6.552;2023-04-21T07:15:19;101580.28;;;11.21;76.39
76297;BME280;65104;52.994;6.552;2023-04-21T07:17:44;101572.75;;;11.28;75.97
76297;BME280;65104;52.994;6.552;2023-04-21T07:20:11;101571.06;;;11.29;77.19
76297;BME280;65104;52.994;6.552;2023-04-21T07:22:36;101570.44;;;11.36;77.22
76297;BME280;65104;52.994;6.552;2023-04-21T07:25:03;101568.06;;;11.45;77.07
76297;BME280;65104;52.994;6.552;2023-04-21T07:27:32;101568.84;;;11.41;76.10
76297;BME280;65104;52.994;6.552;2023-04-21T07:29:58;101569.91;;;11.49;75.55
76297;BME280;65104;52.994;6.552;2023-04-21T07:32:24;101565.75;;;11.54;75.66
76297;BME280;65104;52.994;6.552;2023-04-21T07:34:49;101567.56;;;11.58;75.21
76297;BME280;65104;52.994;6.552;2023-04-21T07:37:15;101567.81;;;11.68;75.56
76297;BME280;65104;52.994;6.552;2023-04-21T07:39:40;101570.44;;;11.69;75.56
76297;BME280;65104;52.994;6.552;2023-04-21T07:42:06;101562.22;;;11.82;74.91
76297;BME280;65104;52.994;6.552;2023-04-21T07:44:33;101566.34;;;12.10;73.97
76297;BME280;65104;52.994;6.552;2023-04-21T07:46:58;101565.28;;;12.38;73.88
76297;BME280;65104;52.994;6.552;2023-04-21T07:49:23;101563.75;;;12.85;69.94
76297;BME280;65104;52.994;6.552;2023-04-21T07:51:49;101571.06;;;13.07;69.90
76297;BME280;65104;52.994;6.552;2023-04-21T07:54:14;101563.22;;;13.01;70.90
76297;BME280;65104;52.994;6.552;2023-04-21T07:56:41;101557.56;;;12.77;70.86
76297;BME280;65104;52.994;6.552;2023-04-21T07:59:06;101557.81;;;12.89;70.88
76297;BME280;65104;52.994;6.552;2023-04-21T08:01:31;101566.38;;;12.87;70.96
76297;BME280;65104;52.994;6.552;2023-04-21T08:03:57;101559.66;;;12.95;71.24
76297;BME280;65104;52.994;6.552;2023-04-21T08:06:22;101550.94;;;12.90;70.66
76297;BME280;65104;52.994;6.552;2023-04-21T08:08:47;101553.28;;;13.18;69.93
76297;BME280;65104;52.994;6.552;2023-04-21T08:11:13;101547.66;;;13.39;70.73
76297;BME280;65104;52.994;6.552;2023-04-21T08:13:38;101540.78;;;13.39;69.13
76297;BME280;65104;52.994;6.552;2023-04-21T08:16:04;101547.56;;;13.33;69.02
76297;BME280;65104;52.994;6.552;2023-04-21T08:18:29;101550.03;;;13.28;69.74
76297;BME280;65104;52.994;6.552;2023-04-21T08:20:55;101544.84;;;13.27;69.27
76297;BME280;65104;52.994;6.552;2023-04-21T08:23:22;101538.25;;;13.41;69.47
76297;BME280;65104;52.994;6.552;2023-04-21T08:25:47;101535.06;;;13.56;68.29
76297;BME280;65104;52.994;6.552;2023-04-21T08:28:12;101532.91;;;13.81;67.91
76297;BME280;65104;52.994;6.552;2023-04-21T08:30:40;101526.88;;;13.81;67.71
76297;BME280;65104;52.994;6.552;2023-04-21T08:33:06;101523.66;;;13.94;66.81
76297;BME280;65104;52.994;6.552;2023-04-21T08:35:32;101541.19;;;14.15;66.24
76297;BME280;65104;52.994;6.552;2023-04-21T08:37:58;101541.19;;;14.15;65.86
76297;BME280;65104;52.994;6.552;2023-04-21T08:40:32;101540.91;;;13.95;65.88
76297;BME280;65104;52.994;6.552;2023-04-21T08:42:58;101533.41;;;14.12;65.83
76297;BME280;65104;52.994;6.552;2023-04-21T08:45:24;101525.47;;;14.00;66.03
76297;BME280;65104;52.994;6.552;2023-04-21T08:47:52;101532.81;;;14.30;66.74
76297;BME280;65104;52.994;6.552;2023-04-21T08:50:19;101520.59;;;14.80;64.45
76297;BME280;65104;52.994;6.552;2023-04-21T08:52:45;101530.84;;;14.72;63.94
76297;BME280;65104;52.994;6.552;2023-04-21T08:55:11;101523.09;;;14.74;64.04
76297;BME280;65104;52.994;6.552;2023-04-21T08:57:37;101519.91;;;14.93;62.57
76297;BME280;65104;52.994;6.552;2023-04-21T09:00:03;101522.31;;;14.81;62.65
76297;BME280;65104;52.994;6.552;2023-04-21T09:02:28;101514.22;;;15.26;62.45
76297;BME280;65104;52.994;6.552;2023-04-21T09:04:54;101512.72;;;15.48;61.50
76297;BME280;65104;52.994;6.552;2023-04-21T09:07:35;101512.84;;;15.60;61.32
76297;BME280;65104;52.994;6.552;2023-04-21T09:10:00;101504.38;;;15.79;60.49
76297;BME280;65104;52.994;6.552;2023-04-21T09:12:27;101500.91;;;15.74;60.11
76297;BME280;65104;52.994;6.552;2023-04-21T09:14:53;101507.78;;;15.72;60.44
76297;BME280;65104;52.994;6.552;2023-04-21T09:17:21;101504.22;;;15.61;59.08
76297;BME280;65104;52.994;6.552;2023-04-21T09:19:47;101509.28;;;15.52;59.94
76297;BME280;65104;52.994;6.552;2023-04-21T09:22:18;101502.72;;;15.87;58.64
76297;BME280;65104;52.994;6.552;2023-04-21T09:24:47;101501.09;;;15.98;59.10
76297;BME280;65104;52.994;6.552;2023-04-21T09:27:16;101502.00;;;16.11;59.05
76297;BME280;65104;52.994;6.552;2023-04-21T09:29:46;101505.50;;;16.10;58.82
76297;BME280;65104;52.994;6.552;2023-04-21T09:32:18;101504.94;;;16.63;58.41
76297;BME280;65104;52.994;6.552;2023-04-21T09:34:43;101491.91;;;16.57;56.96
76297;BME280;65104;52.994;6.552;2023-04-21T09:37:10;101501.38;;;16.48;56.86
76297;BME280;65104;52.994;6.552;2023-04-21T09:39:36;101501.22;;;16.23;57.04
76297;BME280;65104;52.994;6.552;2023-04-21T09:42:02;101491.84;;;16.41;56.51
76297;BME280;65104;52.994;6.552;2023-04-21T09:44:28;101505.47;;;16.11;57.19
76297;BME280;65104;52.994;6.552;2023-04-21T09:46:59;101496.91;;;16.22;57.60
76297;BME280;65104;52.994;6.552;2023-04-21T09:49:28;101486.63;;;16.34;57.86
76297;BME280;65104;52.994;6.552;2023-04-21T09:51:55;101482.47;;;16.62;57.67
76297;BME280;65104;52.994;6.552;2023-04-21T09:54:26;101476.22;;;16.29;56.77
76297;BME280;65104;52.994;6.552;2023-04-21T09:56:54;101482.34;;;16.42;56.96
76297;BME280;65104;52.994;6.552;2023-04-21T09:59:24;101478.91;;;16.46;57.36
76297;BME280;65104;52.994;6.552;2023-04-21T10:01:52;101482.28;;;16.33;57.60
76297;BME280;65104;52.994;6.552;2023-04-21T10:04:18;101478.78;;;16.25;57.82
76297;BME280;65104;52.994;6.552;2023-04-21T10:06:45;101481.50;;;16.50;57.14
76297;BME280;65104;52.994;6.552;2023-04-21T10:09:13;101483.19;;;16.39;56.96
76297;BME280;65104;52.994;6.552;2023-04-21T10:11:40;101477.19;;;16.49;57.46
76297;BME280;65104;52.994;6.552;2023-04-21T10:14:07;101473.00;;;16.70;55.47
76297;BME280;65104;52.994;6.552;2023-04-21T10:16:35;101467.03;;;16.97;54.63
76297;BME280;65104;52.994;6.552;2023-04-21T10:19:22;101459.31;;;17.44;53.43
76297;BME280;65104;52.994;6.552;2023-04-21T10:21:48;101455.88;;;17.69;52.15
76297;BME280;65104;52.994;6.552;2023-04-21T10:24:14;101449.75;;;18.00;52.38
76297;BME280;65104;52.994;6.552;2023-04-21T10:26:39;101447.03;;;18.35;50.83
76297;BME280;65104;52.994;6.552;2023-04-21T10:29:06;101443.69;;;18.03;51.09
76297;BME280;65104;52.994;6.552;2023-04-21T10:31:36;101444.59;;;17.75;51.15
76297;BME280;65104;52.994;6.552;2023-04-21T10:39:29;101420.09;;;18.64;48.60
76297;BME280;65104;52.994;6.552;2023-04-21T10:41:56;101410.00;;;19.42;47.92
76297;BME280;65104;52.994;6.552;2023-04-21T10:44:22;101409.09;;;19.46;47.79
76297;BME280;65104;52.994;6.552;2023-04-21T10:46:52;101400.19;;;20.51;46.58
76297;BME280;65104;52.994;6.552;2023-04-21T10:54:29;101396.47;;;20.67;42.91
76297;BME280;65104;52.994;6.552;2023-04-21T10:56:57;101396.03;;;20.99;41.85
76297;BME280;65104;52.994;6.552;2023-04-21T10:59:24;101397.63;;;21.61;42.04
76297;BME280;65104;52.994;6.552;2023-04-21T11:01:51;101392.28;;;21.66;40.48
76297;BME280;65104;52.994;6.552;2023-04-21T11:04:17;101398.91;;;20.81;42.80
76297;BME280;65104;52.994;6.552;2023-04-21T11:07:18;101393.03;;;19.95;43.35
76297;BME280;65104;52.994;6.552;2023-04-21T11:09:45;101386.19;;;19.86;43.51
76297;BME280;65104;52.994;6.552;2023-04-21T11:12:13;101376.75;;;21.06;42.64
76297;BME280;65104;52.994;6.552;2023-04-21T11:14:40;101376.50;;;20.66;43.45
76297;BME280;65104;52.994;6.552;2023-04-21T11:17:14;101364.09;;;21.37;40.91
76297;BME280;65104;52.994;6.552;2023-04-21T11:19:40;101355.31;;;22.30;38.29
76297;BME280;65104;52.994;6.552;2023-04-21T11:22:06;101362.50;;;21.75;38.84
76297;BME280;65104;52.994;6.552;2023-04-21T11:24:31;101361.06;;;22.06;38.62
76297;BME280;65104;52.994;6.552;2023-04-21T11:26:57;101353.75;;;21.77;37.96
76297;BME280;65104;52.994;6.552;2023-04-21T11:29:25;101352.38;;;21.56;38.67
76297;BME280;65104;52.994;6.552;2023-04-21T11:31:50;101346.75;;;21.79;38.02
76297;BME280;65104;52.994;6.552;2023-04-21T11:34:19;101339.13;;;22.12;36.68
76297;BME280;65104;52.994;6.552;2023-04-21T11:36:46;101343.25;;;21.80;39.29
76297;BME280;65104;52.994;6.552;2023-04-21T11:39:16;101333.06;;;21.19;38.03
76297;BME280;65104;52.994;6.552;2023-04-21T11:41:45;101318.25;;;20.63;38.95
76297;BME280;65104;52.994;6.552;2023-04-21T11:44:11;101322.34;;;20.79;39.94
76297;BME280;65104;52.994;6.552;2023-04-21T11:46:37;101314.53;;;21.77;38.52
76297;BME280;65104;52.994;6.552;2023-04-21T11:49:12;101321.56;;;22.18;37.24
76297;BME280;65104;52.994;6.552;2023-04-21T11:51:40;101318.22;;;22.89;36.18
76297;BME280;65104;52.994;6.552;2023-04-21T11:54:10;101317.91;;;23.01;34.68
76297;BME280;65104;52.994;6.552;2023-04-21T11:56:46;101312.72;;;21.82;36.34
76297;BME280;65104;52.994;6.552;2023-04-21T11:59:13;101317.06;;;21.37;37.79
76297;BME280;65104;52.994;6.552;2023-04-21T12:01:49;101312.41;;;21.97;37.36
76297;BME280;65104;52.994;6.552;2023-04-21T12:04:17;101311.72;;;20.91;37.61
76297;BME280;65104;52.994;6.552;2023-04-21T12:06:53;101314.28;;;20.37;39.32
76297;BME280;65104;52.994;6.552;2023-04-21T12:09:20;101312.19;;;19.96;38.86
76297;BME280;65104;52.994;6.552;2023-04-21T12:11:47;101302.25;;;20.24;39.24
76297;BME280;65104;52.994;6.552;2023-04-21T12:14:14;101307.66;;;20.73;38.29
76297;BME280;65104;52.994;6.552;2023-04-21T12:16:41;101304.25;;;21.68;37.47
76297;BME280;65104;52.994;6.552;2023-04-21T12:19:06;101280.22;;;22.34;34.76
76297;BME280;65104;52.994;6.552;2023-04-21T12:21:32;101287.97;;;22.74;32.72
76297;BME280;65104;52.994;6.552;2023-04-21T12:23:57;101279.91;;;23.52;33.46
76297;BME280;65104;52.994;6.552;2023-04-21T12:26:22;101280.03;;;23.79;30.95
76297;BME280;65104;52.994;6.552;2023-04-21T12:28:51;101282.22;;;22.97;33.22
76297;BME280;65104;52.994;6.552;2023-04-21T12:31:17;101271.69;;;22.63;32.83
76297;BME280;65104;52.994;6.552;2023-04-21T12:33:43;101276.75;;;23.06;31.59
76297;BME280;65104;52.994;6.552;2023-04-21T12:36:08;101272.09;;;23.17;31.08
76297;BME280;65104;52.994;6.552;2023-04-21T12:38:34;101266.78;;;23.82;29.84
76297;BME280;65104;52.994;6.552;2023-04-21T12:40:59;101249.41;;;24.89;28.98
76297;BME280;65104;52.994;6.552;2023-04-21T12:43:25;101255.50;;;24.65;29.17
76297;BME280;65104;52.994;6.552;2023-04-21T12:45:50;101250.84;;;24.17;30.34
76297;BME280;65104;52.994;6.552;2023-04-21T12:48:17;101257.94;;;23.24;31.06
76297;BME280;65104;52.994;6.552;2023-04-21T12:50:43;101261.34;;;22.57;32.22
76297;BME280;65104;52.994;6.552;2023-04-21T12:53:09;101258.69;;;21.38;32.19
76297;BME280;65104;52.994;6.552;2023-04-21T12:55:34;101269.25;;;20.81;33.79
76297;BME280;65104;52.994;6.552;2023-04-21T12:58:00;101263.88;;;20.90;33.37
76297;BME280;65104;52.994;6.552;2023-04-21T13:00:26;101247.13;;;22.31;32.94
76297;BME280;65104;52.994;6.552;2023-04-21T13:02:52;101248.50;;;23.49;30.09